createdAt,value
2018-06-02T00:01:02.846Z,1.40
2018-06-02T00:03:30.452Z,1.63
2018-06-02T00:05:58.079Z,1.53
2018-06-02T00:08:25.682Z,1.60
2018-06-02T00:10:53.293Z,1.50
2018-06-02T00:13:20.908Z,1.40
2018-06-02T00:15:48.510Z,1.50
2018-06-02T00:18:16.142Z,1.60
2018-06-02T00:20:44.541Z,1.70
2018-06-02T00:23:12.166Z,1.57
2018-06-02T00:25:39.774Z,1.50
2018-06-02T00:28:07.398Z,1.70
2018-06-02T00:30:34.986Z,1.60
2018-06-02T00:33:02.582Z,1.70
2018-06-02T00:35:30.210Z,1.60
2018-06-02T00:37:57.802Z,1.63
2018-06-02T00:40:25.393Z,1.60
2018-06-02T00:42:52.998Z,1.63
2018-06-02T00:45:20.602Z,1.60
2018-06-02T00:47:48.210Z,1.60
2018-06-02T00:50:15.825Z,1.87
2018-06-02T00:52:43.438Z,1.80
2018-06-02T00:55:11.054Z,1.37
2018-06-02T00:57:38.695Z,1.67
2018-06-02T01:00:06.286Z,1.93
2018-06-02T01:02:34.667Z,2.00
2018-06-02T01:05:03.035Z,1.70
2018-06-02T01:07:30.632Z,1.73
2018-06-02T01:09:58.226Z,1.60
2018-06-02T01:12:25.899Z,1.57
2018-06-02T01:14:53.523Z,1.77
2018-06-02T01:17:21.150Z,1.77
2018-06-02T01:19:49.743Z,1.67
2018-06-02T01:22:17.342Z,1.40
2018-06-02T01:24:44.934Z,2.00
2018-06-02T01:27:12.558Z,1.83
2018-06-02T01:29:40.169Z,2.07
2018-06-02T01:32:07.769Z,1.80
2018-06-02T01:34:35.376Z,1.80
2018-06-02T01:37:02.970Z,1.67
2018-06-02T01:39:30.566Z,1.33
2018-06-02T01:41:58.186Z,1.50
2018-06-02T01:44:25.805Z,1.43
2018-06-02T01:46:53.404Z,1.57
2018-06-02T01:49:21.802Z,2.10
2018-06-02T01:51:49.398Z,1.50
2018-06-02T01:54:17.005Z,1.70
2018-06-02T01:56:45.399Z,2.07
2018-06-02T01:59:12.990Z,1.90
2018-06-02T02:01:40.577Z,1.60
2018-06-02T02:04:08.195Z,1.53
2018-06-02T02:06:35.790Z,1.87
2018-06-02T02:09:03.399Z,2.17
2018-06-02T02:11:31.039Z,1.97
2018-06-02T02:13:59.399Z,1.50
2018-06-02T02:16:26.999Z,1.80
2018-06-02T02:18:54.637Z,1.90
2018-06-02T02:21:23.007Z,2.10
2018-06-02T02:23:51.366Z,1.70
2018-06-02T02:26:19.034Z,1.80
2018-06-02T02:28:46.652Z,1.80
2018-06-02T02:31:14.259Z,1.70
2018-06-02T02:33:41.865Z,1.90
2018-06-02T02:36:09.468Z,2.27
2018-06-02T02:38:37.082Z,1.90
2018-06-02T02:41:04.689Z,2.30
2018-06-02T02:43:32.294Z,1.90
2018-06-02T02:45:59.885Z,1.90
2018-06-02T02:48:27.493Z,1.60
2018-06-02T02:50:55.878Z,2.23
2018-06-02T02:53:24.275Z,2.13
2018-06-02T02:55:51.894Z,2.03
2018-06-02T02:58:19.495Z,2.17
2018-06-02T03:00:47.086Z,1.97
2018-06-02T03:03:14.710Z,2.40
2018-06-02T03:05:42.301Z,2.60
2018-06-02T03:08:09.889Z,2.50
2018-06-02T03:10:37.533Z,2.50
2018-06-02T03:13:05.142Z,2.23
2018-06-02T03:15:32.757Z,2.37
2018-06-02T03:18:00.384Z,2.93
2018-06-02T03:20:27.974Z,2.70
2018-06-02T03:22:55.579Z,3.33
2018-06-02T03:25:23.955Z,3.03
2018-06-02T03:27:52.375Z,3.07
2018-06-02T03:30:19.998Z,2.60
2018-06-02T03:32:48.383Z,2.47
2018-06-02T03:35:15.986Z,2.40
2018-06-02T03:37:43.579Z,2.20
2018-06-02T03:40:11.989Z,2.37
2018-06-02T03:42:39.590Z,2.73
2018-06-02T03:45:07.198Z,2.67
2018-06-02T03:47:34.801Z,2.40
2018-06-02T03:50:02.392Z,2.10
2018-06-02T03:52:29.989Z,2.60
2018-06-02T03:54:57.622Z,2.40
2018-06-02T03:57:25.229Z,2.10
2018-06-02T03:59:52.818Z,2.53
2018-06-02T04:02:20.430Z,2.33
2018-06-02T04:04:48.035Z,2.10
2018-06-02T04:07:15.642Z,2.40
2018-06-02T04:09:43.361Z,2.53
2018-06-02T04:12:10.991Z,2.33
2018-06-02T04:14:38.599Z,2.37
2018-06-02T04:17:06.233Z,2.40
2018-06-02T04:19:33.830Z,2.07
2018-06-02T04:22:02.186Z,2.10
2018-06-02T04:24:29.794Z,2.13
2018-06-02T04:26:57.389Z,1.97
2018-06-02T04:29:25.025Z,2.40
2018-06-02T04:31:53.445Z,2.33
2018-06-02T04:34:21.039Z,2.20
2018-06-02T04:36:49.402Z,2.40
2018-06-02T04:39:17.810Z,1.90
2018-06-02T04:41:45.446Z,1.90
2018-06-02T04:44:13.834Z,2.37
2018-06-02T04:46:41.438Z,2.20
2018-06-02T04:49:09.030Z,1.90
2018-06-02T04:51:36.626Z,2.23
2018-06-02T04:54:04.234Z,2.10
2018-06-02T04:56:31.831Z,2.00
2018-06-02T04:59:00.245Z,2.20
2018-06-02T05:01:27.857Z,1.70
2018-06-02T05:03:56.226Z,2.00
2018-06-02T05:06:23.814Z,1.70
2018-06-02T05:08:52.196Z,1.80
2018-06-02T05:11:19.793Z,1.80
2018-06-02T05:13:47.458Z,1.87
2018-06-02T05:16:15.109Z,2.00
2018-06-02T05:18:42.713Z,1.87
2018-06-02T05:21:10.346Z,1.93
2018-06-02T05:23:37.961Z,1.87
2018-06-02T05:26:05.557Z,1.60
2018-06-02T05:28:33.150Z,1.67
2018-06-02T05:31:00.751Z,1.77
2018-06-02T05:33:28.345Z,1.70
2018-06-02T05:35:55.937Z,1.60
2018-06-02T05:38:24.370Z,1.70
2018-06-02T05:40:51.959Z,1.57
2018-06-02T05:43:19.558Z,1.40
2018-06-02T05:45:47.153Z,1.70
2018-06-02T05:48:14.741Z,1.77
2018-06-02T05:50:42.345Z,1.87
2018-06-02T05:53:09.980Z,1.67
2018-06-02T05:55:38.338Z,1.67
2018-06-02T05:58:06.723Z,1.60
2018-06-02T06:00:34.381Z,1.40
2018-06-02T06:03:01.982Z,1.50
2018-06-02T06:05:29.582Z,1.70
2018-06-02T06:07:57.205Z,1.60
2018-06-02T06:10:24.795Z,1.60
2018-06-02T06:12:52.398Z,1.43
2018-06-02T06:15:20.027Z,1.40
2018-06-02T06:17:47.632Z,1.60
2018-06-02T06:20:15.230Z,1.70
2018-06-02T06:22:42.874Z,1.30
2018-06-02T06:25:10.479Z,1.50
2018-06-02T06:27:38.077Z,1.70
2018-06-02T06:30:05.682Z,1.50
2018-06-02T06:32:33.287Z,1.43
2018-06-02T06:35:00.891Z,1.40
2018-06-02T06:37:28.506Z,1.57
2018-06-02T06:39:56.866Z,1.57
2018-06-02T06:42:24.503Z,1.60
2018-06-02T06:44:52.127Z,1.40
2018-06-02T06:47:19.765Z,1.40
2018-06-02T06:49:47.374Z,1.40
2018-06-02T06:52:15.817Z,1.43
2018-06-02T06:54:44.183Z,1.77
2018-06-02T06:57:12.549Z,1.53
2018-06-02T06:59:40.930Z,1.40
2018-06-02T07:02:08.530Z,1.47
2018-06-02T07:04:36.182Z,1.37
2018-06-02T07:07:03.817Z,1.37
2018-06-02T07:09:31.433Z,1.53
2018-06-02T07:11:59.091Z,1.40
2018-06-02T07:14:26.702Z,1.50
2018-06-02T07:16:55.114Z,1.30
2018-06-02T07:19:22.728Z,1.50
2018-06-02T07:21:50.375Z,1.33
2018-06-02T07:24:17.968Z,1.10
2018-06-02T07:26:46.326Z,1.20
2018-06-02T07:29:13.954Z,1.30
2018-06-02T07:31:41.546Z,1.20
2018-06-02T07:34:09.162Z,0.90
2018-06-02T07:36:36.772Z,0.90
2018-06-02T07:39:06.166Z,1.20
2018-06-02T07:41:33.771Z,0.90
2018-06-02T07:44:01.382Z,1.20
2018-06-02T07:46:28.974Z,0.93
2018-06-02T07:48:56.568Z,1.10
2018-06-02T07:51:24.186Z,0.83
2018-06-02T07:53:51.785Z,1.13
2018-06-02T07:56:19.382Z,1.30
2018-06-02T07:58:46.990Z,1.10
2018-06-02T08:01:14.581Z,0.90
2018-06-02T08:03:42.170Z,1.20
2018-06-02T08:06:09.784Z,1.20
2018-06-02T08:08:37.481Z,1.10
2018-06-02T08:11:05.100Z,0.73
2018-06-02T08:13:32.742Z,0.80
2018-06-02T08:16:00.350Z,0.90
2018-06-02T08:18:27.945Z,0.97
2018-06-02T08:20:55.552Z,0.80
2018-06-02T08:23:23.146Z,0.90
2018-06-02T08:25:50.763Z,1.00
2018-06-02T08:28:18.366Z,1.00
2018-06-02T08:30:45.965Z,0.90
2018-06-02T08:33:13.563Z,0.70
2018-06-02T08:35:41.270Z,0.90
2018-06-02T08:38:09.646Z,0.80
2018-06-02T08:40:38.008Z,1.00
2018-06-02T08:43:05.635Z,0.90
2018-06-02T08:45:33.238Z,1.00
2018-06-02T08:48:01.599Z,0.80
2018-06-02T08:50:29.281Z,0.80
2018-06-02T08:52:56.913Z,1.10
2018-06-02T08:55:24.552Z,1.20
2018-06-02T08:57:52.165Z,1.40
2018-06-02T09:00:19.767Z,1.10
2018-06-02T09:02:47.366Z,1.30
2018-06-02T09:05:15.002Z,0.80
2018-06-02T09:07:42.629Z,1.00
2018-06-02T09:10:10.227Z,1.17
2018-06-02T09:12:37.838Z,1.10
2018-06-02T09:15:05.448Z,0.80
2018-06-02T09:17:33.041Z,0.90
2018-06-02T09:20:00.659Z,0.90
2018-06-02T09:22:28.282Z,1.00
2018-06-02T09:24:55.912Z,1.03
2018-06-02T09:27:23.540Z,1.00
2018-06-02T09:29:51.138Z,0.90
2018-06-02T09:32:18.729Z,0.90
2018-06-02T09:34:46.348Z,1.20
2018-06-02T09:37:13.947Z,1.00
2018-06-02T09:39:41.542Z,1.20
2018-06-02T09:42:09.142Z,0.90
2018-06-02T09:44:37.555Z,0.90
2018-06-02T09:47:05.162Z,1.00
2018-06-02T09:49:32.799Z,0.90
2018-06-02T09:52:00.410Z,1.00
2018-06-02T09:54:28.769Z,1.20
2018-06-02T09:56:56.378Z,1.20
2018-06-02T09:59:24.008Z,1.00
2018-06-02T10:01:52.366Z,1.00
2018-06-02T10:04:19.995Z,1.17
2018-06-02T10:06:47.586Z,1.00
2018-06-02T10:09:15.202Z,1.00
2018-06-02T10:11:42.831Z,1.17
2018-06-02T10:14:11.198Z,1.00
2018-06-02T10:16:39.579Z,0.87
2018-06-02T10:19:07.193Z,0.70
2018-06-02T10:21:34.797Z,0.63
2018-06-02T10:24:03.162Z,1.10
2018-06-02T10:26:30.797Z,0.83
2018-06-02T10:28:58.386Z,1.03
2018-06-02T10:31:26.769Z,0.80
2018-06-02T10:33:54.392Z,0.60
2018-06-02T10:36:21.983Z,0.60
2018-06-02T10:38:49.585Z,0.70
2018-06-02T10:41:17.304Z,0.73
2018-06-02T10:43:44.898Z,0.60
2018-06-02T10:46:12.486Z,0.60
2018-06-02T10:48:40.090Z,0.60
2018-06-02T10:51:07.693Z,0.60
2018-06-02T10:53:35.292Z,0.67
2018-06-02T10:56:02.918Z,0.63
2018-06-02T10:58:30.539Z,0.60
2018-06-02T11:00:58.154Z,0.80
2018-06-02T11:03:25.769Z,0.70
2018-06-02T11:05:53.357Z,0.60
2018-06-02T11:08:20.963Z,0.80
2018-06-02T11:10:48.681Z,0.70
2018-06-02T11:13:16.277Z,0.80
2018-06-02T11:15:43.879Z,0.70
2018-06-02T11:18:11.501Z,0.50
2018-06-02T11:20:39.102Z,0.63
2018-06-02T11:23:06.702Z,0.60
2018-06-02T11:25:34.339Z,0.50
2018-06-02T11:28:01.934Z,0.80
2018-06-02T11:30:29.534Z,0.50
2018-06-02T11:32:57.146Z,0.53
2018-06-02T11:35:24.781Z,0.73
2018-06-02T11:37:52.393Z,0.70
2018-06-02T11:40:20.030Z,0.50
2018-06-02T11:42:47.622Z,0.60
2018-06-02T11:45:15.214Z,0.60
2018-06-02T11:47:42.833Z,0.70
2018-06-02T11:50:10.431Z,0.80
2018-06-02T11:52:38.022Z,0.50
2018-06-02T11:55:05.639Z,0.47
2018-06-02T11:57:33.262Z,0.40
2018-06-02T12:00:00.890Z,0.50
2018-06-02T12:02:28.505Z,0.60
2018-06-02T12:04:56.869Z,0.33
2018-06-02T12:07:24.470Z,0.50
2018-06-02T12:09:52.106Z,0.73
2018-06-02T12:12:20.490Z,0.50
2018-06-02T12:14:48.855Z,0.50
2018-06-02T12:17:16.462Z,0.50
2018-06-02T12:19:44.075Z,0.43
2018-06-02T12:22:11.674Z,0.50
2018-06-02T12:24:39.291Z,0.40
2018-06-02T12:27:06.887Z,0.30
2018-06-02T12:29:34.482Z,0.50
2018-06-02T12:32:02.160Z,0.40
2018-06-02T12:34:29.762Z,0.50
2018-06-02T12:36:58.122Z,0.40
2018-06-02T12:39:26.499Z,0.50
2018-06-02T12:41:55.288Z,0.77
2018-06-02T12:44:22.889Z,0.63
2018-06-02T12:46:51.287Z,0.40
2018-06-02T12:49:18.891Z,0.40
2018-06-02T12:51:47.249Z,0.30
2018-06-02T12:54:14.856Z,0.40
2018-06-02T12:56:42.491Z,0.50
2018-06-02T12:59:10.094Z,0.43
2018-06-02T13:01:37.723Z,0.40
2018-06-02T13:04:05.323Z,0.50
2018-06-02T13:06:32.914Z,0.40
2018-06-02T13:09:00.526Z,0.40
2018-06-02T13:11:28.122Z,0.40
2018-06-02T13:13:56.490Z,0.40
2018-06-02T13:16:24.136Z,0.40
2018-06-02T13:18:51.779Z,0.50
2018-06-02T13:21:19.448Z,0.30
2018-06-02T13:23:47.786Z,0.40
2018-06-02T13:26:16.149Z,0.40
2018-06-02T13:28:43.803Z,0.45
2018-06-02T13:31:11.438Z,0.37
2018-06-02T13:33:39.030Z,0.30
2018-06-02T13:36:06.686Z,0.37
2018-06-02T13:38:34.287Z,0.47
2018-06-02T13:41:01.878Z,0.30
2018-06-02T13:43:30.244Z,0.40
2018-06-02T13:45:57.852Z,0.40
2018-06-02T13:48:25.449Z,0.30
2018-06-02T13:50:53.056Z,0.40
2018-06-02T13:53:20.668Z,0.30
2018-06-02T13:55:48.302Z,0.30
2018-06-02T13:58:15.931Z,0.40
2018-06-02T14:00:43.546Z,0.50
2018-06-02T14:03:11.145Z,0.30
2018-06-02T14:05:38.733Z,0.30
2018-06-02T14:08:06.356Z,0.40
2018-06-02T14:10:33.951Z,0.50
2018-06-02T14:13:01.550Z,0.30
2018-06-02T14:15:29.163Z,0.30
2018-06-02T14:17:56.758Z,0.45
2018-06-02T14:20:25.134Z,0.40
2018-06-02T14:22:53.506Z,0.40
2018-06-02T14:25:21.923Z,0.30
2018-06-02T14:27:50.297Z,0.30
2018-06-02T14:30:17.915Z,0.30
2018-06-02T14:32:45.550Z,0.30
2018-06-02T14:35:13.149Z,0.30
2018-06-02T14:37:40.832Z,0.30
2018-06-02T14:40:08.395Z,0.40
2018-06-02T14:42:36.014Z,0.32
2018-06-02T14:45:03.635Z,0.30
2018-06-02T14:47:31.230Z,0.30
2018-06-02T14:49:58.833Z,0.30
2018-06-02T14:52:26.545Z,0.37
2018-06-02T14:54:54.181Z,0.40
2018-06-02T14:57:21.797Z,0.40
2018-06-02T14:59:50.171Z,0.40
2018-06-02T15:02:17.771Z,0.45
2018-06-02T15:04:45.380Z,0.30
2018-06-02T15:07:12.990Z,0.40
2018-06-02T15:09:40.585Z,0.40
2018-06-02T15:12:08.190Z,0.40
2018-06-02T15:17:09.764Z,0.47
2018-06-02T15:19:37.415Z,0.52
2018-06-02T15:22:05.025Z,0.50
2018-06-02T15:24:32.615Z,0.70
2018-06-02T15:27:01.101Z,0.40
2018-06-02T15:29:29.492Z,0.47
2018-06-02T15:31:57.090Z,0.50
2018-06-02T15:34:24.754Z,0.90
2018-06-02T15:36:52.356Z,0.60
2018-06-02T15:39:19.954Z,0.70
2018-06-02T15:41:47.599Z,0.50
2018-06-02T15:44:15.206Z,0.62
2018-06-02T15:46:42.809Z,0.70
2018-06-02T15:49:11.182Z,0.80
2018-06-02T15:51:38.801Z,0.77
2018-06-02T15:54:06.414Z,0.70
2018-06-02T15:56:34.058Z,0.90
2018-06-02T15:59:02.422Z,0.80
2018-06-02T16:01:30.009Z,0.97
2018-06-02T16:03:57.621Z,1.03
2018-06-02T16:06:25.214Z,0.77
2018-06-02T16:08:53.620Z,0.93
2018-06-02T16:11:21.252Z,1.00
2018-06-02T16:13:49.617Z,1.00
2018-06-02T16:16:17.218Z,1.03
2018-06-02T16:18:44.831Z,1.37
2018-06-02T16:21:12.421Z,1.17
2018-06-02T16:23:40.804Z,0.90
2018-06-02T16:26:08.443Z,1.10
2018-06-02T16:28:36.047Z,0.90
2018-06-02T16:31:03.727Z,1.13
2018-06-02T16:33:31.351Z,1.00
2018-06-02T16:35:58.951Z,0.90
2018-06-02T16:38:26.542Z,1.10
2018-06-02T16:40:54.160Z,0.90
2018-06-02T16:43:21.754Z,1.07
2018-06-02T16:45:49.354Z,0.77
2018-06-02T16:48:16.967Z,0.90
2018-06-02T16:50:44.557Z,1.03
2018-06-02T16:53:12.962Z,0.80
2018-06-02T16:55:40.562Z,0.93
2018-06-02T16:58:08.926Z,1.00
2018-06-02T17:00:36.522Z,0.90
2018-06-02T17:03:04.126Z,0.90
2018-06-02T17:05:31.721Z,1.50
2018-06-02T17:07:59.329Z,0.80
2018-06-02T17:10:26.967Z,1.10
2018-06-02T17:12:55.327Z,1.00
2018-06-02T17:15:22.950Z,0.83
2018-06-02T17:17:50.556Z,0.90
2018-06-02T17:20:18.161Z,1.07
2018-06-02T17:22:45.749Z,1.00
2018-06-02T17:25:13.354Z,0.97
2018-06-02T17:27:40.956Z,0.90
2018-06-02T17:30:09.316Z,0.80
2018-06-02T17:32:36.925Z,0.87
2018-06-02T17:35:04.517Z,0.60
2018-06-02T17:37:32.111Z,0.60
2018-06-02T17:39:59.714Z,0.90
2018-06-02T17:42:27.326Z,0.70
2018-06-02T17:44:54.918Z,0.70
2018-06-02T17:47:22.522Z,0.80
2018-06-02T17:49:50.120Z,0.67
2018-06-02T17:52:17.723Z,0.60
2018-06-02T17:54:46.141Z,2.03
2018-06-02T17:57:13.734Z,0.67
2018-06-02T17:59:41.331Z,0.60
2018-06-02T18:02:09.704Z,0.80
2018-06-02T18:04:38.062Z,0.73
2018-06-02T18:07:05.731Z,0.70
2018-06-02T18:09:33.325Z,0.60
2018-06-02T18:12:00.918Z,0.70
2018-06-02T18:14:28.521Z,0.90
2018-06-02T18:16:56.889Z,0.80
2018-06-02T18:19:24.486Z,0.90
2018-06-02T18:21:52.084Z,0.70
2018-06-02T18:24:19.692Z,0.73
2018-06-02T18:26:48.050Z,0.80
2018-06-02T18:29:15.661Z,0.60
2018-06-02T18:31:43.285Z,0.80
2018-06-02T18:34:10.941Z,0.80
2018-06-02T18:36:39.305Z,0.90
2018-06-02T18:39:06.933Z,0.90
2018-06-02T18:41:34.525Z,0.87
2018-06-02T18:44:02.126Z,1.00
2018-06-02T18:46:29.745Z,0.80
2018-06-02T18:48:57.363Z,0.60
2018-06-02T18:51:25.728Z,0.73
2018-06-02T18:53:53.334Z,0.70
2018-06-02T18:56:20.927Z,0.80
2018-06-02T18:58:49.306Z,0.60
2018-06-02T19:01:16.971Z,0.87
2018-06-02T19:03:45.334Z,0.80
2018-06-02T19:06:13.686Z,1.00
2018-06-02T19:08:41.302Z,0.80
2018-06-02T19:11:08.889Z,0.90
2018-06-02T19:13:36.493Z,0.67
2018-06-02T19:16:04.126Z,0.80
2018-06-02T19:18:31.769Z,0.80
2018-06-02T19:20:59.383Z,0.70
2018-06-02T19:23:27.757Z,0.70
2018-06-02T19:25:56.121Z,0.93
2018-06-02T19:28:23.722Z,0.70
2018-06-02T19:30:51.327Z,0.60
2018-06-02T19:33:18.922Z,0.70
2018-06-02T19:35:46.546Z,0.80
2018-06-02T19:38:14.228Z,1.13
2018-06-02T19:40:42.591Z,0.70
2018-06-02T19:43:10.196Z,0.80
2018-06-02T19:45:38.571Z,0.80
2018-06-02T19:48:06.235Z,0.70
2018-06-02T19:50:33.821Z,0.80
2018-06-02T19:53:01.425Z,0.80
2018-06-02T19:55:29.790Z,0.70
2018-06-02T19:57:57.390Z,0.80
2018-06-02T20:00:24.998Z,0.87
2018-06-02T20:02:52.590Z,0.80
2018-06-02T20:05:20.990Z,0.70
2018-06-02T20:07:48.607Z,0.80
2018-06-02T20:10:16.234Z,0.80
2018-06-02T20:12:43.827Z,0.80
2018-06-02T20:15:11.435Z,0.87
2018-06-02T20:17:39.810Z,0.60
2018-06-02T20:20:07.405Z,1.00
2018-06-02T20:22:35.070Z,0.70
2018-06-02T20:25:02.690Z,0.80
2018-06-02T20:27:30.318Z,1.17
2018-06-02T20:29:57.944Z,0.83
2018-06-02T20:32:25.562Z,0.73
2018-06-02T20:34:53.160Z,0.80
2018-06-02T20:37:20.773Z,0.80
2018-06-02T20:39:49.134Z,0.77
2018-06-02T20:42:16.806Z,0.60
2018-06-02T20:44:45.174Z,0.70
2018-06-02T20:47:12.768Z,0.50
2018-06-02T20:49:40.366Z,0.67
2018-06-02T20:52:07.982Z,0.73
2018-06-02T20:54:35.584Z,0.63
2018-06-02T20:57:03.194Z,1.00
2018-06-02T20:59:31.566Z,0.80
2018-06-02T21:01:59.159Z,0.90
2018-06-02T21:04:26.766Z,0.80
2018-06-02T21:06:54.369Z,0.70
2018-06-02T21:09:21.958Z,0.90
2018-06-02T21:11:49.578Z,1.00
2018-06-02T21:14:17.184Z,1.00
2018-06-02T21:16:44.775Z,0.90
2018-06-02T21:19:12.374Z,0.93
2018-06-02T21:21:39.998Z,0.90
2018-06-02T21:24:08.354Z,1.00
2018-06-02T21:26:36.747Z,0.87
2018-06-02T21:29:04.360Z,1.20
2018-06-02T21:31:32.030Z,1.23
2018-06-02T21:33:59.627Z,1.13
2018-06-02T21:36:27.254Z,1.27
2018-06-02T21:38:54.846Z,0.93
2018-06-02T21:41:22.434Z,1.20
2018-06-02T21:43:50.834Z,1.10
2018-06-02T21:46:18.455Z,1.27
2018-06-02T21:48:46.091Z,1.50
2018-06-02T21:51:13.701Z,1.17
2018-06-02T21:53:41.297Z,1.50
2018-06-02T21:56:08.904Z,1.30
2018-06-02T21:58:37.273Z,1.30
2018-06-02T22:01:04.873Z,1.00
2018-06-02T22:03:32.478Z,1.40
2018-06-02T22:06:00.109Z,1.37
2018-06-02T22:08:27.730Z,1.00
2018-06-02T22:10:56.086Z,1.20
2018-06-02T22:13:23.726Z,1.50
2018-06-02T22:15:51.342Z,1.30
2018-06-02T22:18:18.947Z,1.30
2018-06-02T22:20:46.562Z,1.40
2018-06-02T22:23:14.163Z,1.50
2018-06-02T22:25:41.777Z,1.30
2018-06-02T22:28:10.146Z,1.30
2018-06-02T22:30:37.747Z,1.40
2018-06-02T22:33:05.341Z,1.30
2018-06-02T22:35:32.949Z,1.33
2018-06-02T22:38:00.556Z,1.70
2018-06-02T22:40:28.154Z,1.50
2018-06-02T22:42:56.595Z,1.40
2018-06-02T22:45:24.980Z,1.53
2018-06-02T22:47:52.578Z,1.70
2018-06-02T22:50:20.202Z,1.70
2018-06-02T22:52:47.795Z,1.80
2018-06-02T22:55:16.153Z,1.60
2018-06-02T22:57:44.563Z,1.60
2018-06-02T23:00:17.650Z,1.50
2018-06-02T23:02:45.278Z,1.70
2018-06-02T23:05:12.906Z,1.90
2018-06-02T23:07:41.278Z,1.90
2018-06-02T23:10:08.906Z,1.67
2018-06-02T23:12:37.294Z,1.77
2018-06-02T23:15:04.930Z,2.00
2018-06-02T23:17:33.303Z,1.87
2018-06-02T23:20:01.659Z,2.00
2018-06-02T23:22:39.082Z,1.93
2018-06-02T23:25:07.491Z,1.80
2018-06-02T23:27:35.130Z,1.60
2018-06-02T23:30:02.742Z,2.30
2018-06-02T23:32:30.329Z,2.10
2018-06-02T23:34:58.687Z,2.00
2018-06-02T23:37:26.299Z,2.00
2018-06-02T23:39:54.677Z,1.80
2018-06-02T23:42:22.296Z,2.10
2018-06-02T23:44:49.910Z,1.80
2018-06-02T23:47:17.506Z,2.00
2018-06-02T23:49:45.099Z,2.10
2018-06-02T23:52:12.754Z,2.00
2018-06-02T23:54:41.115Z,1.60
2018-06-02T23:57:08.718Z,2.20
2018-06-02T23:59:36.347Z,2.03
